createdAt,value
2023-05-19T00:00:08.757Z,30.25
2023-05-19T00:01:08.824Z,32.34
2023-05-19T00:02:08.892Z,29.28
2023-05-19T00:03:09.115Z,32.18
2023-05-19T00:04:08.939Z,29.90
2023-05-19T00:05:08.999Z,33.43
2023-05-19T00:06:09.104Z,32.33
2023-05-19T00:07:09.124Z,29.59
2023-05-19T00:08:09.148Z,27.86
2023-05-19T00:09:09.200Z,32.58
2023-05-19T00:10:09.281Z,33.47
2023-05-19T00:11:09.317Z,30.12
2023-05-19T00:12:09.370Z,33.90
2023-05-19T00:13:09.415Z,33.84
2023-05-19T00:14:09.569Z,32.58
2023-05-19T00:15:09.518Z,33.81
2023-05-19T00:16:09.605Z,30.45
2023-05-19T00:17:09.619Z,32.48
2023-05-19T00:18:09.664Z,30.68
2023-05-19T00:19:09.801Z,30.78
2023-05-19T00:20:09.743Z,31.59
2023-05-19T00:21:09.805Z,32.72
2023-05-19T00:22:09.844Z,33.18
2023-05-19T00:23:09.924Z,34.03
2023-05-19T00:24:09.946Z,31.67
2023-05-19T00:25:09.988Z,32.49
2023-05-19T00:26:10.037Z,34.86
2023-05-19T00:27:10.085Z,32.61
2023-05-19T00:28:10.136Z,35.68
2023-05-19T00:29:10.162Z,30.91
2023-05-19T00:30:10.238Z,34.27
2023-05-19T00:31:10.286Z,35.16
2023-05-19T00:32:10.383Z,33.51
2023-05-19T00:33:10.395Z,32.93
2023-05-19T00:34:10.408Z,31.38
2023-05-19T00:35:10.480Z,32.95
2023-05-19T00:36:10.516Z,33.33
2023-05-19T00:37:10.553Z,32.21
2023-05-19T00:38:10.606Z,32.45
2023-05-19T00:39:10.653Z,33.32
2023-05-19T00:40:10.737Z,32.88
2023-05-19T00:41:10.760Z,34.14
2023-05-19T00:42:10.790Z,31.41
2023-05-19T00:43:10.834Z,36.07
2023-05-19T00:44:10.881Z,33.23
2023-05-19T00:45:10.931Z,32.37
2023-05-19T00:46:11.119Z,35.30
2023-05-19T00:47:11.033Z,34.81
2023-05-19T00:48:11.083Z,33.70
2023-05-19T00:49:11.131Z,33.16
2023-05-19T00:50:11.168Z,33.00
2023-05-19T00:51:11.225Z,37.33
2023-05-19T00:52:11.276Z,33.29
2023-05-19T00:53:11.318Z,32.36
2023-05-19T00:54:11.378Z,35.07
2023-05-19T00:55:11.417Z,35.65
2023-05-19T00:56:11.482Z,35.06
2023-05-19T00:57:11.518Z,31.67
2023-05-19T00:58:11.573Z,33.96
2023-05-19T00:59:11.627Z,34.70
2023-05-19T01:00:11.681Z,32.58
2023-05-19T01:01:11.809Z,37.33
2023-05-19T01:02:11.771Z,34.77
2023-05-19T01:03:11.934Z,32.61
2023-05-19T01:04:11.939Z,33.95
2023-05-19T01:05:11.945Z,36.37
2023-05-19T01:06:11.993Z,33.95
2023-05-19T01:07:12.033Z,33.85
2023-05-19T01:08:12.089Z,31.84
2023-05-19T01:09:12.258Z,36.67
2023-05-19T01:10:12.201Z,33.60
2023-05-19T01:11:12.256Z,36.61
2023-05-19T01:12:12.306Z,32.38
2023-05-19T01:13:12.365Z,36.28
2023-05-19T01:14:12.430Z,32.99
2023-05-19T01:15:12.460Z,33.49
2023-05-19T01:16:12.724Z,34.82
2023-05-19T01:17:12.576Z,32.10
2023-05-19T01:18:12.663Z,35.42
2023-05-19T01:19:12.702Z,38.06
2023-05-19T01:20:12.717Z,34.24
2023-05-19T01:21:12.795Z,37.51
2023-05-19T01:22:12.822Z,37.08
2023-05-19T01:23:12.879Z,35.55
2023-05-19T01:24:12.940Z,36.46
2023-05-19T01:25:12.982Z,34.87
2023-05-19T01:26:13.044Z,37.89
2023-05-19T01:27:13.099Z,34.93
2023-05-19T01:28:13.139Z,36.28
2023-05-19T01:29:13.216Z,35.54
2023-05-19T01:30:13.299Z,34.76
2023-05-19T01:31:13.327Z,35.89
2023-05-19T01:32:13.476Z,35.58
2023-05-19T01:33:13.432Z,39.75
2023-05-19T01:34:13.490Z,34.85
2023-05-19T01:35:13.544Z,33.70
2023-05-19T01:36:13.609Z,38.70
2023-05-19T01:37:13.658Z,35.08
2023-05-19T01:38:13.744Z,35.90
2023-05-19T01:39:13.771Z,35.51
2023-05-19T01:40:13.825Z,36.66
2023-05-19T01:41:13.890Z,37.90
2023-05-19T01:42:13.946Z,37.16
2023-05-19T01:43:13.998Z,37.05
2023-05-19T01:44:14.041Z,38.29
2023-05-19T01:45:14.090Z,37.10
2023-05-19T01:46:14.198Z,36.10
2023-05-19T01:47:14.199Z,37.67
2023-05-19T01:48:14.305Z,37.10
2023-05-19T01:49:14.344Z,35.52
2023-05-19T01:50:14.370Z,39.80
2023-05-19T01:51:14.429Z,36.10
2023-05-19T01:52:14.479Z,34.50
2023-05-19T01:53:14.572Z,37.02
2023-05-19T01:54:14.600Z,35.48
2023-05-19T01:55:14.657Z,39.32
2023-05-19T01:56:14.718Z,35.70
2023-05-19T01:57:14.789Z,36.44
2023-05-19T01:58:14.825Z,36.22
2023-05-19T01:59:14.884Z,36.93
2023-05-19T02:00:14.959Z,37.22
2023-05-19T02:01:15.084Z,36.54
2023-05-19T02:02:15.068Z,38.89
2023-05-19T02:03:15.137Z,38.09
2023-05-19T02:04:15.198Z,39.21
2023-05-19T02:05:15.254Z,39.37
2023-05-19T02:06:15.297Z,37.19
2023-05-19T02:07:15.357Z,35.25
2023-05-19T02:08:15.411Z,38.69
2023-05-19T02:09:15.458Z,36.41
2023-05-19T02:10:15.515Z,36.57
2023-05-19T02:11:15.565Z,37.71
2023-05-19T02:12:15.624Z,35.46
2023-05-19T02:13:15.672Z,38.22
2023-05-19T02:14:15.744Z,37.53
2023-05-19T02:15:15.812Z,35.27
2023-05-19T02:16:16.072Z,37.55
2023-05-19T02:17:15.900Z,38.35
2023-05-19T02:18:15.958Z,37.83
2023-05-19T02:19:16.044Z,35.78
2023-05-19T02:20:16.053Z,38.80
2023-05-19T02:21:16.123Z,36.19
2023-05-19T02:22:16.167Z,35.11
2023-05-19T02:23:16.240Z,36.60
2023-05-19T02:24:16.272Z,34.83
2023-05-19T02:25:16.346Z,36.68
2023-05-19T02:26:16.394Z,37.13
2023-05-19T02:27:16.436Z,35.06
2023-05-19T02:28:16.492Z,37.56
2023-05-19T02:29:16.547Z,39.17
2023-05-19T02:30:16.599Z,38.50
2023-05-19T02:31:16.659Z,38.50
2023-05-19T02:32:16.864Z,40.68
2023-05-19T02:33:16.802Z,37.65
2023-05-19T02:34:16.824Z,36.71
2023-05-19T02:35:16.875Z,38.12
2023-05-19T02:36:16.953Z,38.65
2023-05-19T02:37:16.998Z,37.82
2023-05-19T02:38:17.029Z,36.02
2023-05-19T02:39:17.098Z,37.61
2023-05-19T02:40:17.152Z,38.26
2023-05-19T02:41:17.190Z,36.77
2023-05-19T02:42:17.245Z,36.41
2023-05-19T02:43:17.298Z,33.95
2023-05-19T02:44:17.350Z,39.19
2023-05-19T02:45:17.414Z,39.21
2023-05-19T02:46:17.480Z,38.23
2023-05-19T02:47:17.512Z,36.56
2023-05-19T02:48:17.563Z,36.94
2023-05-19T02:49:17.622Z,38.64
2023-05-19T02:50:17.674Z,35.99
2023-05-19T02:51:17.727Z,35.64
2023-05-19T02:52:17.772Z,37.24
2023-05-19T02:53:17.832Z,38.60
2023-05-19T02:54:18.494Z,35.27
2023-05-19T02:55:17.912Z,38.57
2023-05-19T02:56:17.954Z,37.53
2023-05-19T02:57:17.996Z,36.21
2023-05-19T02:58:18.054Z,38.15
2023-05-19T02:59:18.118Z,38.06
2023-05-19T03:00:18.176Z,37.62
2023-05-19T03:01:18.258Z,38.88
2023-05-19T03:02:18.261Z,36.82
2023-05-19T03:03:18.442Z,36.29
2023-05-19T03:04:18.366Z,40.20
2023-05-19T03:05:18.466Z,39.34
2023-05-19T03:06:18.480Z,39.75
2023-05-19T03:07:18.535Z,39.31
2023-05-19T03:08:18.573Z,39.62
2023-05-19T03:09:18.643Z,39.16
2023-05-19T03:10:18.675Z,39.91
2023-05-19T03:11:18.741Z,38.43
2023-05-19T03:12:18.775Z,39.08
2023-05-19T03:13:18.831Z,39.41
2023-05-19T03:14:18.934Z,40.07
2023-05-19T03:15:18.915Z,39.28
2023-05-19T03:16:19.035Z,39.39
2023-05-19T03:17:19.099Z,39.80
2023-05-19T03:18:19.144Z,37.63
2023-05-19T03:19:19.193Z,40.32
2023-05-19T03:20:19.164Z,38.44
2023-05-19T03:21:19.226Z,40.37
2023-05-19T03:22:19.297Z,36.32
2023-05-19T03:23:19.321Z,40.07
2023-05-19T03:24:19.386Z,38.87
2023-05-19T03:25:19.466Z,36.52
2023-05-19T03:26:19.497Z,36.24
2023-05-19T03:27:19.536Z,40.14
2023-05-19T03:28:19.589Z,40.61
2023-05-19T03:29:19.639Z,41.16
2023-05-19T03:30:19.703Z,38.86
2023-05-19T03:31:19.769Z,40.13
2023-05-19T03:32:19.829Z,40.50
2023-05-19T03:33:19.989Z,40.29
2023-05-19T03:34:19.919Z,37.13
2023-05-19T03:35:19.987Z,38.94
2023-05-19T03:36:20.055Z,39.24
2023-05-19T03:37:20.089Z,38.75
2023-05-19T03:38:20.152Z,38.26
2023-05-19T03:39:20.198Z,38.89
2023-05-19T03:40:20.238Z,37.27
2023-05-19T03:41:20.293Z,37.68
2023-05-19T03:42:20.352Z,39.87
2023-05-19T03:43:20.403Z,39.26
2023-05-19T03:44:20.470Z,37.50
2023-05-19T03:45:20.504Z,39.06
2023-05-19T03:46:20.863Z,38.19
2023-05-19T03:47:20.624Z,38.63
2023-05-19T03:48:21.375Z,37.95
2023-05-19T03:49:20.767Z,38.73
2023-05-19T03:50:20.781Z,40.45
2023-05-19T03:51:20.875Z,38.97
2023-05-19T03:52:20.890Z,37.59
2023-05-19T03:53:20.974Z,37.29
2023-05-19T03:54:21.039Z,39.69
2023-05-19T03:55:21.084Z,37.74
2023-05-19T03:56:21.153Z,38.53
2023-05-19T03:57:21.181Z,38.36
2023-05-19T03:58:21.205Z,39.04
2023-05-19T03:59:21.280Z,37.59
2023-05-19T04:00:21.321Z,38.10
2023-05-19T04:01:21.357Z,39.57
2023-05-19T04:02:21.433Z,37.87
2023-05-19T04:03:21.520Z,38.78
2023-05-19T04:04:21.555Z,41.71
2023-05-19T04:05:21.571Z,37.87
2023-05-19T04:06:21.653Z,39.48
2023-05-19T04:07:21.693Z,40.58
2023-05-19T04:08:21.741Z,37.33
2023-05-19T04:09:21.812Z,37.85
2023-05-19T04:10:21.867Z,40.69
2023-05-19T04:11:21.938Z,36.80
2023-05-19T04:12:22.037Z,37.87
2023-05-19T04:13:22.020Z,39.48
2023-05-19T04:14:22.103Z,36.77
2023-05-19T04:15:22.149Z,35.67
2023-05-19T04:16:22.204Z,39.03
2023-05-19T04:17:22.269Z,38.25
2023-05-19T04:18:22.329Z,36.79
2023-05-19T04:19:22.499Z,37.47
2023-05-19T04:20:22.392Z,37.13
2023-05-19T04:21:22.478Z,33.92
2023-05-19T04:22:22.498Z,41.50
2023-05-19T04:23:22.562Z,36.03
2023-05-19T04:24:22.621Z,37.63
2023-05-19T04:25:22.647Z,37.49
2023-05-19T04:26:22.697Z,36.63
2023-05-19T04:27:22.773Z,35.20
2023-05-19T04:28:22.766Z,36.28
2023-05-19T04:29:22.841Z,38.33
2023-05-19T04:30:22.933Z,38.50
2023-05-19T04:31:22.978Z,38.72
2023-05-19T04:32:23.006Z,39.03
2023-05-19T04:33:23.051Z,37.56
2023-05-19T04:34:23.124Z,38.22
2023-05-19T04:35:23.126Z,40.08
2023-05-19T04:36:23.186Z,39.81
2023-05-19T04:37:23.230Z,37.97
2023-05-19T04:38:23.303Z,35.57
2023-05-19T04:39:23.372Z,37.05
2023-05-19T04:40:23.445Z,38.62
2023-05-19T04:41:23.484Z,39.07
2023-05-19T04:42:23.543Z,34.61
2023-05-19T04:43:23.584Z,39.02
2023-05-19T04:44:23.657Z,38.65
2023-05-19T04:45:23.710Z,37.08
2023-05-19T04:46:23.803Z,38.52
2023-05-19T04:47:23.844Z,35.54
2023-05-19T04:48:23.855Z,36.97
2023-05-19T04:49:23.927Z,33.92
2023-05-19T04:50:23.976Z,35.14
2023-05-19T04:51:24.044Z,33.55
2023-05-19T04:52:24.080Z,35.00
2023-05-19T04:53:24.104Z,33.00
2023-05-19T04:54:24.177Z,33.37
2023-05-19T04:55:24.233Z,33.42
2023-05-19T04:56:24.280Z,32.28
2023-05-19T04:57:24.315Z,32.20
2023-05-19T04:58:24.387Z,26.64
2023-05-19T04:59:24.432Z,29.97
2023-05-19T05:00:24.525Z,30.24
2023-05-19T05:01:24.613Z,28.52
2023-05-19T05:02:24.741Z,28.96
2023-05-19T05:03:24.724Z,25.00
2023-05-19T05:04:24.731Z,26.12
2023-05-19T05:05:24.812Z,26.67
2023-05-19T05:06:24.837Z,26.08
2023-05-19T05:07:24.876Z,26.68
2023-05-19T05:08:24.931Z,29.34
2023-05-19T05:09:24.980Z,25.14
2023-05-19T05:10:25.039Z,25.05
2023-05-19T05:11:25.108Z,26.31
2023-05-19T05:12:25.149Z,28.10
2023-05-19T05:13:25.198Z,26.50
2023-05-19T05:14:25.274Z,27.95
2023-05-19T05:15:25.338Z,27.93
2023-05-19T05:16:25.433Z,25.00
2023-05-19T05:17:25.479Z,27.24
2023-05-19T05:18:25.496Z,29.27
2023-05-19T05:19:25.668Z,26.94
2023-05-19T05:20:25.596Z,25.49
2023-05-19T05:21:25.645Z,28.17
2023-05-19T05:22:25.713Z,26.68
2023-05-19T05:23:25.753Z,27.63
2023-05-19T05:24:25.806Z,25.05
2023-05-19T05:25:25.865Z,27.84
2023-05-19T05:26:25.926Z,30.02
2023-05-19T05:27:25.973Z,29.97
2023-05-19T05:28:26.032Z,27.14
2023-05-19T05:29:26.094Z,28.20
2023-05-19T05:30:26.172Z,26.88
2023-05-19T05:31:26.205Z,29.61
2023-05-19T05:32:26.396Z,28.28
2023-05-19T05:33:26.395Z,30.37
2023-05-19T05:34:26.370Z,31.97
2023-05-19T05:35:26.445Z,32.22
2023-05-19T05:36:26.503Z,30.46
2023-05-19T05:37:26.565Z,34.14
2023-05-19T05:38:26.629Z,32.70
2023-05-19T05:39:26.649Z,35.38
2023-05-19T05:40:26.699Z,35.92
2023-05-19T05:41:26.767Z,35.86
2023-05-19T05:42:29.537Z,37.25
2023-05-19T05:43:26.806Z,37.00
2023-05-19T05:44:26.775Z,40.27
2023-05-19T05:45:26.785Z,37.19
2023-05-19T05:46:26.883Z,39.91
2023-05-19T05:47:26.809Z,41.18
2023-05-19T05:48:26.764Z,40.14
2023-05-19T05:49:26.743Z,44.01
2023-05-19T05:50:26.735Z,42.19
2023-05-19T05:51:26.752Z,46.66
2023-05-19T05:52:26.754Z,44.77
2023-05-19T05:53:26.731Z,47.24
2023-05-19T05:54:26.724Z,46.94
2023-05-19T05:55:26.698Z,49.33
2023-05-19T05:56:26.701Z,47.32
2023-05-19T05:57:26.678Z,49.91
2023-05-19T05:58:26.691Z,47.69
2023-05-19T05:59:26.661Z,49.18
2023-05-19T06:00:26.651Z,50.22
2023-05-19T06:01:26.680Z,48.31
2023-05-19T06:02:26.741Z,52.35
2023-05-19T06:03:26.657Z,50.81
2023-05-19T06:04:26.663Z,51.32
2023-05-19T06:05:26.649Z,52.73
2023-05-19T06:06:26.607Z,51.60
2023-05-19T06:07:26.602Z,53.11
2023-05-19T06:08:26.598Z,52.53
2023-05-19T06:09:26.618Z,55.18
2023-05-19T06:10:26.597Z,53.72
2023-05-19T06:11:26.584Z,55.57
2023-05-19T06:12:26.571Z,55.95
2023-05-19T06:13:26.552Z,54.38
2023-05-19T06:14:26.551Z,55.85
2023-05-19T06:15:26.569Z,57.77
2023-05-19T06:16:26.600Z,58.15
2023-05-19T06:17:26.564Z,54.61
2023-05-19T06:18:26.532Z,52.97
2023-05-19T06:19:26.572Z,55.43
2023-05-19T06:20:26.503Z,59.08
2023-05-19T06:21:26.498Z,55.51
2023-05-19T06:22:26.570Z,55.72
2023-05-19T06:23:26.592Z,57.76
2023-05-19T06:24:26.652Z,57.29
2023-05-19T06:25:26.726Z,57.19
2023-05-19T06:26:26.805Z,59.20
2023-05-19T06:27:26.847Z,59.00
2023-05-19T06:28:26.871Z,58.32
2023-05-19T06:29:26.934Z,60.57
2023-05-19T06:30:27.009Z,59.58
2023-05-19T06:31:27.062Z,60.67
2023-05-19T06:32:27.103Z,59.01
2023-05-19T06:33:29.157Z,59.79
2023-05-19T06:34:27.193Z,59.30
2023-05-19T06:35:27.259Z,58.83
2023-05-19T06:36:27.321Z,61.87
2023-05-19T06:37:27.376Z,56.35
2023-05-19T06:38:27.427Z,59.78
2023-05-19T06:39:27.480Z,57.52
2023-05-19T06:40:27.558Z,60.72
2023-05-19T06:41:27.598Z,57.99
2023-05-19T06:42:27.658Z,60.37
2023-05-19T06:43:27.821Z,59.81
2023-05-19T06:44:27.748Z,62.78
2023-05-19T06:45:27.812Z,59.65
2023-05-19T06:46:27.923Z,60.60
2023-05-19T06:47:27.936Z,59.82
2023-05-19T06:48:27.963Z,59.65
2023-05-19T06:49:27.997Z,60.35
2023-05-19T06:50:28.106Z,59.03
2023-05-19T06:51:28.110Z,59.91
2023-05-19T06:52:28.189Z,61.44
2023-05-19T06:53:28.214Z,59.91
2023-05-19T06:54:28.249Z,59.79
2023-05-19T06:55:28.315Z,60.34
2023-05-19T06:56:28.353Z,57.63
2023-05-19T06:57:28.398Z,62.68
2023-05-19T06:58:28.490Z,58.59
2023-05-19T06:59:28.498Z,59.03
2023-05-19T07:00:28.563Z,57.89
2023-05-19T07:01:28.670Z,57.66
2023-05-19T07:02:28.706Z,59.37
2023-05-19T07:03:28.782Z,57.78
2023-05-19T07:04:28.774Z,62.23
2023-05-19T07:05:28.804Z,58.57
2023-05-19T07:06:28.859Z,55.62
2023-05-19T07:07:28.916Z,54.35
2023-05-19T07:08:28.972Z,51.97
2023-05-19T07:09:28.984Z,54.30
2023-05-19T07:10:29.049Z,54.59
2023-05-19T07:11:29.103Z,54.70
2023-05-19T07:12:29.167Z,49.63
2023-05-19T07:13:29.256Z,52.13
2023-05-19T07:14:29.264Z,47.80
2023-05-19T07:15:29.296Z,49.52
2023-05-19T07:16:29.439Z,48.27
2023-05-19T07:17:29.441Z,43.37
2023-05-19T07:18:29.483Z,46.75
2023-05-19T07:19:29.616Z,44.94
2023-05-19T07:20:29.614Z,43.21
2023-05-19T07:21:29.662Z,43.63
2023-05-19T07:22:29.679Z,40.12
2023-05-19T07:23:29.720Z,36.74
2023-05-19T07:24:29.782Z,37.70
2023-05-19T07:25:29.831Z,31.65
2023-05-19T07:26:29.898Z,30.14
2023-05-19T07:27:29.932Z,33.62
2023-05-19T07:28:30.000Z,31.48
2023-05-19T07:29:30.036Z,30.46
2023-05-19T07:30:30.157Z,27.10
2023-05-19T07:31:30.165Z,28.41
2023-05-19T07:32:30.227Z,26.93
2023-05-19T07:33:30.241Z,27.20
2023-05-19T07:34:30.273Z,25.95
2023-05-19T07:35:30.327Z,25.24
2023-05-19T07:36:30.382Z,28.70
2023-05-19T07:37:30.414Z,25.93
2023-05-19T07:38:30.465Z,26.56
2023-05-19T07:39:30.506Z,25.24
2023-05-19T07:40:30.779Z,28.34
2023-05-19T07:41:30.636Z,25.33
2023-05-19T07:42:30.664Z,27.87
2023-05-19T07:43:30.716Z,25.00
2023-05-19T07:44:30.745Z,28.66
2023-05-19T07:45:30.811Z,26.84
2023-05-19T07:46:30.915Z,27.27
2023-05-19T07:47:30.969Z,27.00
2023-05-19T07:48:30.953Z,26.48
2023-05-19T07:49:31.013Z,25.00
2023-05-19T07:50:31.213Z,25.53
2023-05-19T07:51:31.127Z,27.47
2023-05-19T07:52:31.165Z,28.91
2023-05-19T07:53:31.195Z,31.34
2023-05-19T07:54:31.265Z,29.75
2023-05-19T07:55:31.319Z,32.02
2023-05-19T07:56:31.389Z,32.68
2023-05-19T07:57:31.406Z,29.05
2023-05-19T07:58:31.452Z,33.79
2023-05-19T07:59:31.503Z,32.41
2023-05-19T08:00:31.760Z,34.78
2023-05-19T08:01:31.619Z,30.58
2023-05-19T08:02:31.706Z,36.28
2023-05-19T08:03:31.846Z,34.93
2023-05-19T08:04:31.785Z,35.23
2023-05-19T08:05:31.796Z,37.18
2023-05-19T08:06:31.868Z,37.71
2023-05-19T08:07:31.871Z,37.12
2023-05-19T08:08:31.933Z,36.55
2023-05-19T08:09:31.967Z,40.19
2023-05-19T08:10:32.168Z,38.98
2023-05-19T08:11:32.088Z,39.56
2023-05-19T08:12:32.091Z,38.59
2023-05-19T08:13:32.147Z,38.84
2023-05-19T08:14:32.180Z,39.15
2023-05-19T08:15:32.625Z,41.57
2023-05-19T08:16:32.406Z,44.19
2023-05-19T08:17:32.333Z,42.84
2023-05-19T08:18:32.347Z,46.02
2023-05-19T08:19:32.397Z,44.85
2023-05-19T08:20:32.657Z,48.10
2023-05-19T08:21:32.536Z,50.83
2023-05-19T08:22:32.559Z,50.64
2023-05-19T08:23:32.620Z,52.40
2023-05-19T08:24:32.662Z,52.23
2023-05-19T08:25:32.712Z,54.92
2023-05-19T08:26:33.089Z,55.26
2023-05-19T08:27:32.792Z,55.05
2023-05-19T08:28:32.844Z,55.27
2023-05-19T08:29:32.897Z,58.60
2023-05-19T08:30:33.171Z,60.45
2023-05-19T08:31:33.119Z,60.63
2023-05-19T08:32:33.166Z,60.38
2023-05-19T08:33:33.116Z,61.52
2023-05-19T08:34:33.172Z,62.56
2023-05-19T08:35:33.190Z,61.84
2023-05-19T08:36:33.250Z,64.03
2023-05-19T08:37:34.180Z,65.27
2023-05-19T08:38:33.342Z,65.48
2023-05-19T08:39:33.409Z,65.13
2023-05-19T08:40:33.841Z,64.52
2023-05-19T08:41:33.484Z,67.81
2023-05-19T08:42:33.525Z,68.24
2023-05-19T08:43:33.564Z,68.48
2023-05-19T08:44:33.635Z,68.94
2023-05-19T08:45:33.970Z,69.43
2023-05-19T08:46:33.768Z,68.80
2023-05-19T08:47:33.838Z,71.92
2023-05-19T08:48:33.832Z,71.79
2023-05-19T08:49:33.880Z,69.77
2023-05-19T08:50:34.166Z,71.17
2023-05-19T08:51:33.955Z,73.75
2023-05-19T08:52:34.010Z,72.24
2023-05-19T08:53:34.745Z,74.92
2023-05-19T08:54:34.140Z,73.87
2023-05-19T08:55:34.623Z,74.63
2023-05-19T08:56:34.145Z,73.59
2023-05-19T08:57:34.193Z,74.27
2023-05-19T08:58:34.250Z,74.13
2023-05-19T08:59:34.274Z,78.69
2023-05-19T09:00:34.683Z,75.26
2023-05-19T09:01:34.422Z,76.90
2023-05-19T09:02:34.429Z,75.38
2023-05-19T09:03:34.502Z,73.45
2023-05-19T09:04:34.595Z,75.49
2023-05-19T09:05:34.997Z,72.91
2023-05-19T09:06:34.567Z,74.86
2023-05-19T09:07:34.606Z,78.25
2023-05-19T09:08:34.656Z,76.36
2023-05-19T09:09:34.676Z,78.02
2023-05-19T09:10:34.705Z,78.17
2023-05-19T09:11:34.817Z,76.87
2023-05-19T09:12:34.798Z,77.41
2023-05-19T09:13:34.881Z,77.96
2023-05-19T09:14:34.901Z,81.25
2023-05-19T09:15:35.237Z,79.25
2023-05-19T09:16:35.153Z,83.46
2023-05-19T09:17:35.068Z,79.40
2023-05-19T09:18:35.066Z,80.31
2023-05-19T09:19:35.242Z,82.20
2023-05-19T09:20:35.163Z,80.66
2023-05-19T09:21:35.237Z,82.02
2023-05-19T09:22:35.244Z,82.00
2023-05-19T09:23:35.298Z,79.78
2023-05-19T09:24:35.337Z,83.02
2023-05-19T09:25:35.572Z,83.80
2023-05-19T09:26:35.415Z,82.27
2023-05-19T09:27:35.455Z,84.29
2023-05-19T09:28:35.497Z,85.19
2023-05-19T09:29:35.542Z,84.40
2023-05-19T09:30:35.573Z,83.66
2023-05-19T09:31:35.610Z,83.64
2023-05-19T09:32:35.649Z,86.98
2023-05-19T09:33:35.639Z,86.89
2023-05-19T09:34:35.687Z,85.00
2023-05-19T09:35:35.823Z,84.16
2023-05-19T09:36:35.743Z,87.17
2023-05-19T09:37:35.772Z,83.18
2023-05-19T09:38:35.798Z,85.72
2023-05-19T09:39:35.845Z,84.56
2023-05-19T09:40:35.879Z,84.20
2023-05-19T09:41:35.955Z,84.08
2023-05-19T09:42:35.976Z,85.40
2023-05-19T09:43:36.019Z,85.44
2023-05-19T09:44:36.056Z,87.77
2023-05-19T09:45:36.097Z,84.97
2023-05-19T09:46:36.218Z,85.77
2023-05-19T09:47:36.239Z,85.29
2023-05-19T09:48:36.232Z,85.93
2023-05-19T09:49:36.285Z,89.14
2023-05-19T09:50:36.325Z,87.11
2023-05-19T09:51:36.348Z,88.24
2023-05-19T09:52:36.413Z,89.65
2023-05-19T09:53:36.429Z,86.93
2023-05-19T09:54:36.463Z,91.08
2023-05-19T09:55:36.517Z,88.91
2023-05-19T09:56:36.558Z,87.00
2023-05-19T09:57:36.600Z,87.44
2023-05-19T09:58:36.903Z,87.92
2023-05-19T09:59:36.694Z,86.44
2023-05-19T10:00:36.737Z,82.67
2023-05-19T10:01:36.794Z,87.12
2023-05-19T10:02:36.858Z,84.65
2023-05-19T10:03:36.920Z,81.16
2023-05-19T10:04:36.934Z,83.87
2023-05-19T10:05:36.954Z,89.01
2023-05-19T10:06:37.000Z,87.40
2023-05-19T10:07:37.035Z,86.32
2023-05-19T10:08:37.089Z,90.19
2023-05-19T10:09:37.117Z,86.50
2023-05-19T10:10:37.151Z,88.75
2023-05-19T10:11:37.186Z,90.38
2023-05-19T10:12:37.241Z,87.14
2023-05-19T10:13:37.259Z,89.68
2023-05-19T10:14:37.300Z,91.08
2023-05-19T10:15:46.650Z,91.21
2023-05-19T10:16:38.407Z,91.42
2023-05-19T10:17:37.334Z,91.72
2023-05-19T10:18:39.113Z,91.69
2023-05-19T10:19:37.306Z,94.11
2023-05-19T10:20:37.309Z,92.94
2023-05-19T10:21:37.286Z,93.70
2023-05-19T10:22:37.277Z,92.85
2023-05-19T10:23:37.284Z,94.66
2023-05-19T10:24:37.256Z,94.63
2023-05-19T10:25:37.277Z,91.32
2023-05-19T10:26:37.244Z,93.15
2023-05-19T10:27:37.251Z,95.14
2023-05-19T10:28:37.221Z,94.37
2023-05-19T10:29:37.230Z,94.29
2023-05-19T10:30:37.215Z,91.31
2023-05-19T10:31:37.234Z,93.89
2023-05-19T10:32:37.233Z,95.12
2023-05-19T10:33:37.195Z,93.37
2023-05-19T10:34:37.189Z,94.65
2023-05-19T10:35:37.528Z,94.58
2023-05-19T10:36:37.168Z,93.89
2023-05-19T10:37:37.178Z,93.97
2023-05-19T10:38:37.163Z,95.69
2023-05-19T10:39:37.152Z,94.72
2023-05-19T10:40:37.143Z,95.43
2023-05-19T10:41:37.145Z,94.03
2023-05-19T10:42:37.129Z,92.31
2023-05-19T10:43:37.131Z,90.78
2023-05-19T10:44:37.115Z,92.96
2023-05-19T10:45:37.103Z,91.37
2023-05-19T10:46:37.136Z,95.26
2023-05-19T10:47:37.124Z,92.79
2023-05-19T10:48:37.101Z,94.06
2023-05-19T10:49:37.078Z,93.91
2023-05-19T10:50:37.075Z,95.20
2023-05-19T10:51:37.065Z,95.70
2023-05-19T10:52:37.058Z,96.74
2023-05-19T10:53:37.041Z,96.88
2023-05-19T10:54:37.044Z,98.50
2023-05-19T10:55:37.027Z,99.15
2023-05-19T10:56:37.021Z,96.26
2023-05-19T10:57:37.023Z,98.81
2023-05-19T10:58:37.035Z,96.75
2023-05-19T10:59:37.026Z,98.27
2023-05-19T11:00:36.997Z,97.33
2023-05-19T11:01:37.049Z,95.92
2023-05-19T11:02:37.018Z,97.41
2023-05-19T11:03:37.001Z,97.18
2023-05-19T11:04:36.967Z,95.77
2023-05-19T11:05:36.974Z,97.08
2023-05-19T11:06:36.958Z,99.53
2023-05-19T11:07:36.945Z,93.92
2023-05-19T11:08:36.997Z,94.61
2023-05-19T11:09:40.489Z,94.99
2023-05-19T11:10:36.944Z,95.20
2023-05-19T11:11:36.949Z,95.69
2023-05-19T11:12:36.912Z,97.26
2023-05-19T11:13:36.906Z,98.48
2023-05-19T11:14:36.912Z,96.73
2023-05-19T11:15:36.888Z,99.46
2023-05-19T11:16:36.923Z,97.54
2023-05-19T11:17:36.910Z,96.46
2023-05-19T11:18:36.894Z,98.97
2023-05-19T11:19:36.854Z,101.25
2023-05-19T11:20:36.886Z,98.58
2023-05-19T11:21:36.843Z,96.72
2023-05-19T11:22:36.853Z,98.62
2023-05-19T11:23:36.904Z,99.98
2023-05-19T11:24:36.822Z,97.80
2023-05-19T11:25:36.853Z,98.52
2023-05-19T11:26:36.828Z,100.65
2023-05-19T11:27:36.834Z,100.23
2023-05-19T11:28:36.814Z,98.46
2023-05-19T11:29:36.797Z,97.12
2023-05-19T11:30:36.808Z,99.21
2023-05-19T11:31:36.853Z,99.00
2023-05-19T11:32:36.790Z,98.97
2023-05-19T11:33:36.778Z,98.79
2023-05-19T11:34:36.769Z,102.39
2023-05-19T11:35:36.926Z,98.12
2023-05-19T11:36:36.745Z,98.57
2023-05-19T11:37:36.794Z,101.45
2023-05-19T11:38:36.710Z,100.68
2023-05-19T11:39:36.717Z,98.94
2023-05-19T11:40:36.718Z,99.12
2023-05-19T11:41:36.713Z,99.10
2023-05-19T11:42:36.692Z,99.88
2023-05-19T11:43:36.687Z,101.03
2023-05-19T11:44:36.663Z,102.05
2023-05-19T11:45:36.783Z,102.77
2023-05-19T11:46:36.725Z,100.84
2023-05-19T11:47:47.421Z,104.44
2023-05-19T11:48:37.696Z,104.67
2023-05-19T11:49:36.654Z,104.50
2023-05-19T11:50:36.628Z,103.16
2023-05-19T11:51:36.635Z,102.58
2023-05-19T11:52:36.629Z,100.72
2023-05-19T11:53:36.616Z,102.27
2023-05-19T11:54:36.685Z,102.61
2023-05-19T11:55:36.589Z,102.53
2023-05-19T11:56:36.647Z,102.10
2023-05-19T11:57:36.612Z,102.27
2023-05-19T11:58:36.566Z,103.29
2023-05-19T11:59:36.568Z,100.16
2023-05-19T12:00:36.576Z,103.40
2023-05-19T12:01:36.604Z,105.72
2023-05-19T12:02:36.723Z,105.64
2023-05-19T12:03:36.884Z,107.32
2023-05-19T12:04:36.717Z,101.49
2023-05-19T12:05:39.901Z,105.07
2023-05-19T12:06:37.873Z,105.34
2023-05-19T12:07:36.736Z,105.28
2023-05-19T12:08:36.770Z,104.69
2023-05-19T12:09:36.730Z,107.23
2023-05-19T12:10:36.723Z,104.48
2023-05-19T12:11:36.692Z,103.92
2023-05-19T12:12:36.711Z,108.06
2023-05-19T12:13:36.698Z,106.88
2023-05-19T12:14:36.689Z,105.86
2023-05-19T12:15:36.669Z,106.28
2023-05-19T12:16:36.747Z,106.62
2023-05-19T12:17:36.734Z,105.18
2023-05-19T12:18:36.662Z,105.09
2023-05-19T12:19:36.704Z,105.92
2023-05-19T12:20:36.737Z,105.02
2023-05-19T12:21:36.774Z,105.06
2023-05-19T12:22:36.815Z,107.31
2023-05-19T12:23:36.861Z,106.64
2023-05-19T12:24:36.915Z,107.03
2023-05-19T12:25:37.101Z,105.41
2023-05-19T12:26:36.974Z,107.08
2023-05-19T12:27:37.021Z,106.93
2023-05-19T12:28:37.061Z,106.86
2023-05-19T12:29:37.083Z,106.74
2023-05-19T12:30:37.282Z,105.60
2023-05-19T12:31:37.153Z,106.14
2023-05-19T12:32:37.199Z,107.32
2023-05-19T12:33:37.209Z,108.26
2023-05-19T12:34:37.246Z,107.47
2023-05-19T12:35:37.285Z,110.78
2023-05-19T12:36:37.314Z,108.89
2023-05-19T12:37:37.380Z,106.18
2023-05-19T12:38:37.389Z,104.78
2023-05-19T12:39:37.419Z,105.54
2023-05-19T12:40:37.836Z,108.15
2023-05-19T12:41:37.509Z,107.30
2023-05-19T12:42:37.531Z,108.12
2023-05-19T12:43:37.560Z,104.47
2023-05-19T12:44:37.594Z,108.52
2023-05-19T12:45:37.787Z,107.50
2023-05-19T12:46:37.657Z,106.13
2023-05-19T12:47:37.703Z,105.56
2023-05-19T12:48:37.694Z,109.80
2023-05-19T12:49:37.743Z,107.76
2023-05-19T12:50:37.794Z,107.32